sensor_id;sensor_type;location;lat;lon;timestamp;temperature;humidity
6174;DHT22;3120;48.796;9.796;2022-10-19T00:01:20;13.40;99.90
6174;DHT22;3120;48.796;9.796;2022-10-19T00:03:49;13.30;99.90
6174;DHT22;3120;48.796;9.796;2022-10-19T00:06:20;13.60;99.90
6174;DHT22;3120;48.796;9.796;2022-10-19T00:08:58;13.40;99.90
6174;DHT22;3120;48.796;9.796;2022-10-19T00:11:24;13.30;99.90
6174;DHT22;3120;48.796;9.796;2022-10-19T00:13:50;13.20;99.90
6174;DHT22;3120;48.796;9.796;2022-10-19T00:16:16;13.30;99.90
6174;DHT22;3120;48.796;9.796;2022-10-19T00:18:43;13.20;99.90
6174;DHT22;3120;48.796;9.796;2022-10-19T00:21:11;13.30;99.90
6174;DHT22;3120;48.796;9.796;2022-10-19T00:23:37;13.70;99.90
6174;DHT22;3120;48.796;9.796;2022-10-19T00:26:03;13.00;99.90
6174;DHT22;3120;48.796;9.796;2022-10-19T00:28:28;13.10;99.90
6174;DHT22;3120;48.796;9.796;2022-10-19T00:30:54;13.10;99.90
6174;DHT22;3120;48.796;9.796;2022-10-19T00:33:20;13.10;99.90
6174;DHT22;3120;48.796;9.796;2022-10-19T00:35:51;13.10;99.90
6174;DHT22;3120;48.796;9.796;2022-10-19T00:38:19;13.10;99.90
6174;DHT22;3120;48.796;9.796;2022-10-19T00:40:45;13.20;99.90
6174;DHT22;3120;48.796;9.796;2022-10-19T00:43:31;13.10;99.90
6174;DHT22;3120;48.796;9.796;2022-10-19T00:45:57;13.10;99.90
6174;DHT22;3120;48.796;9.796;2022-10-19T00:48:30;13.10;99.90
6174;DHT22;3120;48.796;9.796;2022-10-19T00:50:57;13.10;99.90
6174;DHT22;3120;48.796;9.796;2022-10-19T00:53:25;13.10;99.90
6174;DHT22;3120;48.796;9.796;2022-10-19T00:55:53;13.00;99.90
6174;DHT22;3120;48.796;9.796;2022-10-19T00:58:20;13.00;99.90
6174;DHT22;3120;48.796;9.796;2022-10-19T01:00:46;13.00;99.90
6174;DHT22;3120;48.796;9.796;2022-10-19T01:03:16;13.00;99.90
6174;DHT22;3120;48.796;9.796;2022-10-19T01:05:42;13.00;99.90
6174;DHT22;3120;48.796;9.796;2022-10-19T01:08:09;12.90;99.90
6174;DHT22;3120;48.796;9.796;2022-10-19T01:10:44;13.70;99.90
6174;DHT22;3120;48.796;9.796;2022-10-19T01:13:21;12.90;99.90
6174;DHT22;3120;48.796;9.796;2022-10-19T01:16:00;12.90;99.90
6174;DHT22;3120;48.796;9.796;2022-10-19T01:21:16;12.90;99.90
6174;DHT22;3120;48.796;9.796;2022-10-19T01:26:57;13.00;99.90
6174;DHT22;3120;48.796;9.796;2022-10-19T01:32:11;13.00;99.90
6174;DHT22;3120;48.796;9.796;2022-10-19T01:34:53;13.10;99.90
6174;DHT22;3120;48.796;9.796;2022-10-19T01:37:43;13.10;99.90
6174;DHT22;3120;48.796;9.796;2022-10-19T01:43:06;13.10;99.90
6174;DHT22;3120;48.796;9.796;2022-10-19T01:46:11;13.30;99.90
6174;DHT22;3120;48.796;9.796;2022-10-19T01:48:40;13.30;99.90
6174;DHT22;3120;48.796;9.796;2022-10-19T01:51:33;13.40;99.90
6174;DHT22;3120;48.796;9.796;2022-10-19T01:54:02;13.40;99.90
6174;DHT22;3120;48.796;9.796;2022-10-19T01:56:30;13.40;99.90
6174;DHT22;3120;48.796;9.796;2022-10-19T01:58:59;13.50;99.90
6174;DHT22;3120;48.796;9.796;2022-10-19T02:01:29;13.50;99.90
6174;DHT22;3120;48.796;9.796;2022-10-19T02:03:56;13.50;99.90
6174;DHT22;3120;48.796;9.796;2022-10-19T02:06:22;13.50;99.90
6174;DHT22;3120;48.796;9.796;2022-10-19T02:08:51;13.50;99.90
6174;DHT22;3120;48.796;9.796;2022-10-19T02:11:18;13.70;99.90
6174;DHT22;3120;48.796;9.796;2022-10-19T02:13:48;14.20;99.90
6174;DHT22;3120;48.796;9.796;2022-10-19T02:16:38;13.60;99.90
6174;DHT22;3120;48.796;9.796;2022-10-19T02:19:06;13.60;99.90
6174;DHT22;3120;48.796;9.796;2022-10-19T02:21:33;13.60;99.90
6174;DHT22;3120;48.796;9.796;2022-10-19T02:23:59;13.60;99.90
6174;DHT22;3120;48.796;9.796;2022-10-19T02:26:24;13.60;99.90
6174;DHT22;3120;48.796;9.796;2022-10-19T02:28:53;13.60;99.90
6174;DHT22;3120;48.796;9.796;2022-10-19T02:31:19;13.60;99.90
6174;DHT22;3120;48.796;9.796;2022-10-19T02:33:45;13.60;99.90
6174;DHT22;3120;48.796;9.796;2022-10-19T02:36:10;13.60;99.90
6174;DHT22;3120;48.796;9.796;2022-10-19T02:38:41;13.60;99.90
6174;DHT22;3120;48.796;9.796;2022-10-19T02:41:23;13.60;99.90
6174;DHT22;3120;48.796;9.796;2022-10-19T02:43:54;13.60;99.90
6174;DHT22;3120;48.796;9.796;2022-10-19T02:46:26;13.70;99.90
6174;DHT22;3120;48.796;9.796;2022-10-19T02:48:53;13.70;99.90
6174;DHT22;3120;48.796;9.796;2022-10-19T02:51:31;13.60;99.90
6174;DHT22;3120;48.796;9.796;2022-10-19T02:53:57;13.60;99.90
6174;DHT22;3120;48.796;9.796;2022-10-19T02:56:23;13.60;99.90
6174;DHT22;3120;48.796;9.796;2022-10-19T02:58:49;13.60;99.90
6174;DHT22;3120;48.796;9.796;2022-10-19T03:01:14;14.40;99.90
6174;DHT22;3120;48.796;9.796;2022-10-19T03:03:40;13.70;99.90
6174;DHT22;3120;48.796;9.796;2022-10-19T03:06:05;13.60;99.90
6174;DHT22;3120;48.796;9.796;2022-10-19T03:08:31;13.60;99.90
6174;DHT22;3120;48.796;9.796;2022-10-19T03:11:00;13.70;99.90
6174;DHT22;3120;48.796;9.796;2022-10-19T03:13:26;13.60;99.90
6174;DHT22;3120;48.796;9.796;2022-10-19T03:15:51;13.60;99.90
6174;DHT22;3120;48.796;9.796;2022-10-19T05:52:46;12.80;99.90
6174;DHT22;3120;48.796;9.796;2022-10-19T05:55:11;12.30;99.90
6174;DHT22;3120;48.796;9.796;2022-10-19T05:57:37;14.40;99.90
6174;DHT22;3120;48.796;9.796;2022-10-19T06:00:04;15.60;99.90
6174;DHT22;3120;48.796;9.796;2022-10-19T06:02:30;12.90;99.90
6174;DHT22;3120;48.796;9.796;2022-10-19T06:04:56;15.20;99.90
6174;DHT22;3120;48.796;9.796;2022-10-19T06:07:23;14.40;99.90
6174;DHT22;3120;48.796;9.796;2022-10-19T06:09:48;14.00;99.90
6174;DHT22;3120;48.796;9.796;2022-10-19T06:12:14;15.30;99.90
6174;DHT22;3120;48.796;9.796;2022-10-19T06:14:39;13.20;99.90
6174;DHT22;3120;48.796;9.796;2022-10-19T06:17:05;13.20;99.90
6174;DHT22;3120;48.796;9.796;2022-10-19T06:19:31;14.30;99.90
6174;DHT22;3120;48.796;9.796;2022-10-19T06:21:56;13.40;99.90
6174;DHT22;3120;48.796;9.796;2022-10-19T06:24:22;14.80;99.90
6174;DHT22;3120;48.796;9.796;2022-10-19T06:26:47;13.60;99.90
6174;DHT22;3120;48.796;9.796;2022-10-19T06:29:13;15.00;99.90
6174;DHT22;3120;48.796;9.796;2022-10-19T06:31:39;15.10;99.90
6174;DHT22;3120;48.796;9.796;2022-10-19T06:34:04;15.90;99.90
6174;DHT22;3120;48.796;9.796;2022-10-19T06:36:31;15.40;99.90
6174;DHT22;3120;48.796;9.796;2022-10-19T06:38:57;15.10;99.90
6174;DHT22;3120;48.796;9.796;2022-10-19T06:41:27;14.00;99.90
6174;DHT22;3120;48.796;9.796;2022-10-19T06:43:54;14.50;99.90
6174;DHT22;3120;48.796;9.796;2022-10-19T06:46:21;15.60;99.90
6174;DHT22;3120;48.796;9.796;2022-10-19T06:48:57;14.00;99.90
6174;DHT22;3120;48.796;9.796;2022-10-19T06:51:24;14.00;99.90
6174;DHT22;3120;48.796;9.796;2022-10-19T06:53:50;14.10;99.90
6174;DHT22;3120;48.796;9.796;2022-10-19T06:56:16;14.10;99.90
6174;DHT22;3120;48.796;9.796;2022-10-19T06:58:42;15.10;99.90
6174;DHT22;3120;48.796;9.796;2022-10-19T07:01:09;14.10;99.90
6174;DHT22;3120;48.796;9.796;2022-10-19T07:03:36;14.40;99.90
6174;DHT22;3120;48.796;9.796;2022-10-19T07:06:05;14.20;99.90
6174;DHT22;3120;48.796;9.796;2022-10-19T07:08:31;14.20;99.90
6174;DHT22;3120;48.796;9.796;2022-10-19T07:11:00;14.30;99.90
6174;DHT22;3120;48.796;9.796;2022-10-19T07:13:27;14.40;99.90
6174;DHT22;3120;48.796;9.796;2022-10-19T07:19:00;14.50;99.90
6174;DHT22;3120;48.796;9.796;2022-10-19T07:21:26;14.60;99.90
6174;DHT22;3120;48.796;9.796;2022-10-19T07:23:51;15.40;99.90
6174;DHT22;3120;48.796;9.796;2022-10-19T07:26:22;14.70;99.90
6174;DHT22;3120;48.796;9.796;2022-10-19T07:28:53;14.80;99.90
6174;DHT22;3120;48.796;9.796;2022-10-19T07:31:53;14.90;99.90
6174;DHT22;3120;48.796;9.796;2022-10-19T07:34:19;15.00;99.90
6174;DHT22;3120;48.796;9.796;2022-10-19T07:36:46;15.00;99.90
6174;DHT22;3120;48.796;9.796;2022-10-19T07:39:13;15.10;99.90
6174;DHT22;3120;48.796;9.796;2022-10-19T07:41:39;15.20;99.90
6174;DHT22;3120;48.796;9.796;2022-10-19T07:44:05;15.50;99.90
6174;DHT22;3120;48.796;9.796;2022-10-19T07:46:31;16.90;99.90
6174;DHT22;3120;48.796;9.796;2022-10-19T07:49:04;17.20;99.90
6174;DHT22;3120;48.796;9.796;2022-10-19T07:51:30;18.30;99.90
6174;DHT22;3120;48.796;9.796;2022-10-19T07:53:57;16.30;99.90
6174;DHT22;3120;48.796;9.796;2022-10-19T07:56:25;16.90;99.90
6174;DHT22;3120;48.796;9.796;2022-10-19T07:58:52;15.90;99.90
6174;DHT22;3120;48.796;9.796;2022-10-19T08:01:23;16.60;99.90
6174;DHT22;3120;48.796;9.796;2022-10-19T08:03:51;15.90;99.90
6174;DHT22;3120;48.796;9.796;2022-10-19T08:06:18;18.00;99.90
6174;DHT22;3120;48.796;9.796;2022-10-19T08:08:44;15.90;99.90
6174;DHT22;3120;48.796;9.796;2022-10-19T08:11:28;15.90;99.90
6174;DHT22;3120;48.796;9.796;2022-10-19T08:13:55;16.00;99.90
6174;DHT22;3120;48.796;9.796;2022-10-19T08:16:37;16.00;99.90
6174;DHT22;3120;48.796;9.796;2022-10-19T08:19:23;16.10;99.90
6174;DHT22;3120;48.796;9.796;2022-10-19T08:21:49;16.20;99.90
6174;DHT22;3120;48.796;9.796;2022-10-19T08:24:16;16.20;99.90
6174;DHT22;3120;48.796;9.796;2022-10-19T08:26:42;18.30;99.90
6174;DHT22;3120;48.796;9.796;2022-10-19T08:29:14;17.70;99.90
6174;DHT22;3120;48.796;9.796;2022-10-19T08:31:44;16.50;99.90
6174;DHT22;3120;48.796;9.796;2022-10-19T08:34:11;17.10;99.90
6174;DHT22;3120;48.796;9.796;2022-10-19T08:39:58;16.70;99.90
6174;DHT22;3120;48.796;9.796;2022-10-19T08:45:40;16.70;96.80
6174;DHT22;3120;48.796;9.796;2022-10-19T08:48:29;16.70;75.70
6174;DHT22;3120;48.796;9.796;2022-10-19T08:50:58;16.90;46.90
6174;DHT22;3120;48.796;9.796;2022-10-19T09:01:54;16.70;99.90
6174;DHT22;3120;48.796;9.796;2022-10-19T09:04:39;16.80;90.30
6174;DHT22;3120;48.796;9.796;2022-10-19T09:07:25;18.30;91.00
6174;DHT22;3120;48.796;9.796;2022-10-19T09:10:03;18.20;79.30
6174;DHT22;3120;48.796;9.796;2022-10-19T09:15:18;17.10;28.30
6174;DHT22;3120;48.796;9.796;2022-10-19T09:17:46;17.10;50.30
6174;DHT22;3120;48.796;9.796;2022-10-19T09:22:41;17.20;15.80
6174;DHT22;3120;48.796;9.796;2022-10-19T09:25:16;17.40;8.00
6174;DHT22;3120;48.796;9.796;2022-10-19T09:27:46;17.10;29.00
6174;DHT22;3120;48.796;9.796;2022-10-19T09:30:18;17.20;1.00
6174;DHT22;3120;48.796;9.796;2022-10-19T09:32:44;18.50;28.50
6174;DHT22;3120;48.796;9.796;2022-10-19T09:35:29;17.50;1.00
6174;DHT22;3120;48.796;9.796;2022-10-19T09:37:56;17.70;1.00
6174;DHT22;3120;48.796;9.796;2022-10-19T09:40:29;18.00;1.00
6174;DHT22;3120;48.796;9.796;2022-10-19T09:42:55;18.00;1.00
6174;DHT22;3120;48.796;9.796;2022-10-19T09:45:37;17.90;1.00
6174;DHT22;3120;48.796;9.796;2022-10-19T09:48:58;17.80;1.00
6174;DHT22;3120;48.796;9.796;2022-10-19T09:51:00;17.70;1.00
6174;DHT22;3120;48.796;9.796;2022-10-19T09:53:27;17.70;1.00
6174;DHT22;3120;48.796;9.796;2022-10-19T09:58:29;17.60;1.00
6174;DHT22;3120;48.796;9.796;2022-10-19T10:00:56;17.90;1.00
6174;DHT22;3120;48.796;9.796;2022-10-19T10:03:40;18.00;1.00
6174;DHT22;3120;48.796;9.796;2022-10-19T10:06:16;18.20;1.00
6174;DHT22;3120;48.796;9.796;2022-10-19T10:08:47;18.20;99.90
6174;DHT22;3120;48.796;9.796;2022-10-19T10:11:24;18.20;99.90
6174;DHT22;3120;48.796;9.796;2022-10-19T10:13:53;18.20;1.00
6174;DHT22;3120;48.796;9.796;2022-10-19T10:16:21;17.90;1.00
6174;DHT22;3120;48.796;9.796;2022-10-19T10:21:24;18.00;1.00
6174;DHT22;3120;48.796;9.796;2022-10-19T10:24:03;18.30;1.00
6174;DHT22;3120;48.796;9.796;2022-10-19T10:26:30;18.20;99.90
6174;DHT22;3120;48.796;9.796;2022-10-19T10:28:55;18.20;99.90
6174;DHT22;3120;48.796;9.796;2022-10-19T10:31:26;18.30;99.90
6174;DHT22;3120;48.796;9.796;2022-10-19T10:33:57;18.50;1.00
6174;DHT22;3120;48.796;9.796;2022-10-19T10:39:42;18.00;1.00
6174;DHT22;3120;48.796;9.796;2022-10-19T10:42:14;17.80;99.90
6174;DHT22;3120;48.796;9.796;2022-10-19T10:44:50;17.80;1.00
6174;DHT22;3120;48.796;9.796;2022-10-19T10:47:18;17.90;1.00
6174;DHT22;3120;48.796;9.796;2022-10-19T10:49:57;18.00;1.00
6174;DHT22;3120;48.796;9.796;2022-10-19T10:52:24;17.80;99.90
6174;DHT22;3120;48.796;9.796;2022-10-19T10:55:00;18.00;99.90
6174;DHT22;3120;48.796;9.796;2022-10-19T10:57:31;18.20;56.10
6174;DHT22;3120;48.796;9.796;2022-10-19T11:00:15;18.80;99.90
6174;DHT22;3120;48.796;9.796;2022-10-19T11:05:24;18.60;1.00
6174;DHT22;3120;48.796;9.796;2022-10-19T11:08:08;18.50;99.90
6174;DHT22;3120;48.796;9.796;2022-10-19T11:10:50;18.50;99.90
6174;DHT22;3120;48.796;9.796;2022-10-19T11:15:54;19.20;99.90
6174;DHT22;3120;48.796;9.796;2022-10-19T11:21:01;19.60;99.90
6174;DHT22;3120;48.796;9.796;2022-10-19T11:23:54;19.60;55.80
6174;DHT22;3120;48.796;9.796;2022-10-19T11:26:40;19.50;1.00
6174;DHT22;3120;48.796;9.796;2022-10-19T11:31:51;19.60;99.90
6174;DHT22;3120;48.796;9.796;2022-10-19T11:34:36;19.60;99.90
6174;DHT22;3120;48.796;9.796;2022-10-19T11:37:27;19.60;1.00
6174;DHT22;3120;48.796;9.796;2022-10-19T11:42:37;19.90;1.00
6174;DHT22;3120;48.796;9.796;2022-10-19T11:45:15;19.40;99.90
6174;DHT22;3120;48.796;9.796;2022-10-19T11:56:20;19.40;99.90
6174;DHT22;3120;48.796;9.796;2022-10-19T12:01:36;19.70;1.00
6174;DHT22;3120;48.796;9.796;2022-10-19T12:04:25;19.90;99.90
6174;DHT22;3120;48.796;9.796;2022-10-19T12:12:25;20.00;1.00
6174;DHT22;3120;48.796;9.796;2022-10-19T12:14:56;20.10;36.50
6174;DHT22;3120;48.796;9.796;2022-10-19T12:17:29;21.10;1.00
6174;DHT22;3120;48.796;9.796;2022-10-19T12:20:40;20.00;1.00
6174;DHT22;3120;48.796;9.796;2022-10-19T12:25:42;20.00;99.90
6174;DHT22;3120;48.796;9.796;2022-10-19T12:28:13;19.90;99.90
6174;DHT22;3120;48.796;9.796;2022-10-19T12:30:40;19.90;99.90
6174;DHT22;3120;48.796;9.796;2022-10-19T12:45:51;19.80;1.00
6174;DHT22;3120;48.796;9.796;2022-10-19T12:48:21;19.80;99.90
6174;DHT22;3120;48.796;9.796;2022-10-19T12:53:30;19.90;16.90
6174;DHT22;3120;48.796;9.796;2022-10-19T12:56:02;19.80;99.90
6174;DHT22;3120;48.796;9.796;2022-10-19T13:01:18;21.30;99.90
6174;DHT22;3120;48.796;9.796;2022-10-19T13:03:45;19.30;99.90
6174;DHT22;3120;48.796;9.796;2022-10-19T13:08:56;19.10;99.90
6174;DHT22;3120;48.796;9.796;2022-10-19T13:11:22;19.20;1.00
6174;DHT22;3120;48.796;9.796;2022-10-19T13:16:38;19.00;99.90
6174;DHT22;3120;48.796;9.796;2022-10-19T13:19:24;19.00;99.90
6174;DHT22;3120;48.796;9.796;2022-10-19T13:22:25;19.00;99.90
6174;DHT22;3120;48.796;9.796;2022-10-19T13:25:23;19.00;99.90
6174;DHT22;3120;48.796;9.796;2022-10-19T13:41:46;19.10;1.00
6174;DHT22;3120;48.796;9.796;2022-10-19T13:44:20;19.90;99.90
6174;DHT22;3120;48.796;9.796;2022-10-19T13:53:33;19.10;99.90
6174;DHT22;3120;48.796;9.796;2022-10-19T13:59:16;18.80;99.90
6174;DHT22;3120;48.796;9.796;2022-10-19T14:07:13;18.70;99.90
6174;DHT22;3120;48.796;9.796;2022-10-19T14:14:43;18.60;99.90
6174;DHT22;3120;48.796;9.796;2022-10-19T14:17:20;19.00;1.00
6174;DHT22;3120;48.796;9.796;2022-10-19T14:19:51;18.50;99.90
6174;DHT22;3120;48.796;9.796;2022-10-19T14:25:20;18.40;1.00
6174;DHT22;3120;48.796;9.796;2022-10-19T14:27:47;18.40;1.00
6174;DHT22;3120;48.796;9.796;2022-10-19T14:30:22;18.30;1.20
6174;DHT22;3120;48.796;9.796;2022-10-19T14:32:48;18.30;99.90
6174;DHT22;3120;48.796;9.796;2022-10-19T14:35:22;18.40;99.90
6174;DHT22;3120;48.796;9.796;2022-10-19T14:37:49;18.40;99.90
6174;DHT22;3120;48.796;9.796;2022-10-19T14:42:47;18.40;1.00
6174;DHT22;3120;48.796;9.796;2022-10-19T14:50:25;18.40;99.90
6174;DHT22;3120;48.796;9.796;2022-10-19T14:53:00;20.10;1.00
6174;DHT22;3120;48.796;9.796;2022-10-19T14:55:29;18.30;99.90
6174;DHT22;3120;48.796;9.796;2022-10-19T14:57:56;20.00;99.90
6174;DHT22;3120;48.796;9.796;2022-10-19T15:00:23;18.90;1.00
6174;DHT22;3120;48.796;9.796;2022-10-19T15:02:59;18.00;11.50
6174;DHT22;3120;48.796;9.796;2022-10-19T15:05:29;19.50;1.00
6174;DHT22;3120;48.796;9.796;2022-10-19T15:07:55;18.90;1.00
6174;DHT22;3120;48.796;9.796;2022-10-19T15:10:27;17.90;1.00
6174;DHT22;3120;48.796;9.796;2022-10-19T15:13:00;18.50;1.00
6174;DHT22;3120;48.796;9.796;2022-10-19T15:15:29;18.60;99.90
6174;DHT22;3120;48.796;9.796;2022-10-19T15:20:33;17.70;1.00
6174;DHT22;3120;48.796;9.796;2022-10-19T15:23:02;17.70;99.90
6174;DHT22;3120;48.796;9.796;2022-10-19T15:25:46;17.70;1.00
6174;DHT22;3120;48.796;9.796;2022-10-19T15:28:34;17.70;99.90
6174;DHT22;3120;48.796;9.796;2022-10-19T15:31:04;17.70;9.10
6174;DHT22;3120;48.796;9.796;2022-10-19T15:33:36;17.80;83.30
6174;DHT22;3120;48.796;9.796;2022-10-19T15:36:12;17.70;99.90
6174;DHT22;3120;48.796;9.796;2022-10-19T15:38:45;17.80;7.60
6174;DHT22;3120;48.796;9.796;2022-10-19T15:41:17;17.70;1.00
6174;DHT22;3120;48.796;9.796;2022-10-19T15:43:49;18.00;9.30
6174;DHT22;3120;48.796;9.796;2022-10-19T15:46:27;17.70;1.00
6174;DHT22;3120;48.796;9.796;2022-10-19T15:51:56;17.60;1.00
6174;DHT22;3120;48.796;9.796;2022-10-19T15:54:21;17.50;56.00
6174;DHT22;3120;48.796;9.796;2022-10-19T15:56:53;17.50;99.90
6174;DHT22;3120;48.796;9.796;2022-10-19T15:59:21;17.50;99.90
6174;DHT22;3120;48.796;9.796;2022-10-19T16:01:48;17.40;99.90
6174;DHT22;3120;48.796;9.796;2022-10-19T16:04:15;17.30;99.90
6174;DHT22;3120;48.796;9.796;2022-10-19T16:06:43;17.20;99.90
6174;DHT22;3120;48.796;9.796;2022-10-19T16:09:19;17.20;1.00
6174;DHT22;3120;48.796;9.796;2022-10-19T16:11:45;17.10;1.00
6174;DHT22;3120;48.796;9.796;2022-10-19T16:14:12;17.10;1.00
6174;DHT22;3120;48.796;9.796;2022-10-19T16:16:37;17.40;1.00
6174;DHT22;3120;48.796;9.796;2022-10-19T16:19:03;17.00;1.00
6174;DHT22;3120;48.796;9.796;2022-10-19T16:21:32;16.70;1.00
6174;DHT22;3120;48.796;9.796;2022-10-19T16:23:58;16.60;1.00
6174;DHT22;3120;48.796;9.796;2022-10-19T16:26:24;16.60;1.00
6174;DHT22;3120;48.796;9.796;2022-10-19T16:28:51;16.50;1.00
6174;DHT22;3120;48.796;9.796;2022-10-19T16:31:17;16.50;1.00
6174;DHT22;3120;48.796;9.796;2022-10-19T16:33:43;16.40;1.00
6174;DHT22;3120;48.796;9.796;2022-10-19T16:36:09;16.50;1.00
6174;DHT22;3120;48.796;9.796;2022-10-19T16:38:35;16.40;1.00
6174;DHT22;3120;48.796;9.796;2022-10-19T16:41:11;16.40;1.00
6174;DHT22;3120;48.796;9.796;2022-10-19T16:43:37;16.70;1.00
6174;DHT22;3120;48.796;9.796;2022-10-19T16:46:03;16.70;1.00
6174;DHT22;3120;48.796;9.796;2022-10-19T16:48:30;16.20;1.00
6174;DHT22;3120;48.796;9.796;2022-10-19T16:53:37;16.60;1.00
6174;DHT22;3120;48.796;9.796;2022-10-19T16:56:08;16.10;21.70
6174;DHT22;3120;48.796;9.796;2022-10-19T16:58:35;15.90;55.60
6174;DHT22;3120;48.796;9.796;2022-10-19T17:01:15;15.80;95.40
6174;DHT22;3120;48.796;9.796;2022-10-19T17:03:43;16.40;99.90
6174;DHT22;3120;48.796;9.796;2022-10-19T17:06:09;15.70;99.90
6174;DHT22;3120;48.796;9.796;2022-10-19T17:08:36;15.60;99.90
6174;DHT22;3120;48.796;9.796;2022-10-19T17:11:17;15.60;99.90
6174;DHT22;3120;48.796;9.796;2022-10-19T17:13:45;15.50;99.90
6174;DHT22;3120;48.796;9.796;2022-10-19T17:16:12;15.50;99.90
6174;DHT22;3120;48.796;9.796;2022-10-19T17:18:39;15.80;99.90
6174;DHT22;3120;48.796;9.796;2022-10-19T17:21:28;15.30;99.90
6174;DHT22;3120;48.796;9.796;2022-10-19T17:24:00;15.30;99.90
6174;DHT22;3120;48.796;9.796;2022-10-19T17:26:28;15.20;99.90
6174;DHT22;3120;48.796;9.796;2022-10-19T17:28:55;15.10;99.90
6174;DHT22;3120;48.796;9.796;2022-10-19T17:31:21;15.00;99.90
6174;DHT22;3120;48.796;9.796;2022-10-19T17:33:46;15.30;99.90
6174;DHT22;3120;48.796;9.796;2022-10-19T17:36:16;14.90;99.90
6174;DHT22;3120;48.796;9.796;2022-10-19T17:38:43;14.80;99.90
6174;DHT22;3120;48.796;9.796;2022-10-19T17:41:14;14.70;99.90
6174;DHT22;3120;48.796;9.796;2022-10-19T17:43:41;14.60;99.90
6174;DHT22;3120;48.796;9.796;2022-10-19T17:46:10;14.70;99.90
6174;DHT22;3120;48.796;9.796;2022-10-19T17:48:37;15.60;99.90
6174;DHT22;3120;48.796;9.796;2022-10-19T17:51:09;15.30;99.90
6174;DHT22;3120;48.796;9.796;2022-10-19T17:53:35;14.50;99.90
6174;DHT22;3120;48.796;9.796;2022-10-19T17:56:03;14.40;99.90
6174;DHT22;3120;48.796;9.796;2022-10-19T18:02:22;14.30;99.90
6174;DHT22;3120;48.796;9.796;2022-10-19T18:04:47;14.20;99.90
6174;DHT22;3120;48.796;9.796;2022-10-19T18:07:13;14.20;99.90
6174;DHT22;3120;48.796;9.796;2022-10-19T18:09:38;14.30;99.90
6174;DHT22;3120;48.796;9.796;2022-10-19T18:12:04;14.10;99.90
6174;DHT22;3120;48.796;9.796;2022-10-19T18:14:30;14.20;99.90
6174;DHT22;3120;48.796;9.796;2022-10-19T18:16:55;14.10;99.90
6174;DHT22;3120;48.796;9.796;2022-10-19T18:19:21;14.10;99.90
6174;DHT22;3120;48.796;9.796;2022-10-19T18:21:46;14.60;99.90
6174;DHT22;3120;48.796;9.796;2022-10-19T18:24:15;14.00;99.90
6174;DHT22;3120;48.796;9.796;2022-10-19T18:26:44;13.90;99.90
6174;DHT22;3120;48.796;9.796;2022-10-19T18:29:12;13.80;99.90
6174;DHT22;3120;48.796;9.796;2022-10-19T18:31:39;13.80;99.90
6174;DHT22;3120;48.796;9.796;2022-10-19T18:34:07;13.70;99.90
6174;DHT22;3120;48.796;9.796;2022-10-19T18:36:33;13.70;99.90
6174;DHT22;3120;48.796;9.796;2022-10-19T18:39:01;14.70;99.90
6174;DHT22;3120;48.796;9.796;2022-10-19T18:41:27;13.70;99.90
6174;DHT22;3120;48.796;9.796;2022-10-19T18:43:58;14.30;99.90
6174;DHT22;3120;48.796;9.796;2022-10-19T18:46:25;13.70;99.90
6174;DHT22;3120;48.796;9.796;2022-10-19T18:48:52;13.60;99.90
6174;DHT22;3120;48.796;9.796;2022-10-19T18:51:18;13.60;99.90
6174;DHT22;3120;48.796;9.796;2022-10-19T18:53:45;13.60;99.90
6174;DHT22;3120;48.796;9.796;2022-10-19T18:56:13;13.90;99.90
6174;DHT22;3120;48.796;9.796;2022-10-19T19:01:47;13.50;99.90
6174;DHT22;3120;48.796;9.796;2022-10-19T19:04:13;13.50;99.90
6174;DHT22;3120;48.796;9.796;2022-10-19T19:06:39;14.60;99.90
6174;DHT22;3120;48.796;9.796;2022-10-19T19:09:09;13.90;99.90
6174;DHT22;3120;48.796;9.796;2022-10-19T19:11:37;13.40;99.90
6174;DHT22;3120;48.796;9.796;2022-10-19T19:14:10;13.60;99.90
6174;DHT22;3120;48.796;9.796;2022-10-19T19:16:37;13.30;99.90
6174;DHT22;3120;48.796;9.796;2022-10-19T19:19:04;13.30;99.90
6174;DHT22;3120;48.796;9.796;2022-10-19T19:21:30;13.30;99.90
6174;DHT22;3120;48.796;9.796;2022-10-19T19:23:59;13.20;99.90
6174;DHT22;3120;48.796;9.796;2022-10-19T19:26:28;12.70;99.90
6174;DHT22;3120;48.796;9.796;2022-10-19T19:28:54;13.50;99.90
6174;DHT22;3120;48.796;9.796;2022-10-19T19:31:19;13.10;99.90
6174;DHT22;3120;48.796;9.796;2022-10-19T19:33:46;13.10;99.90
6174;DHT22;3120;48.796;9.796;2022-10-19T19:36:13;13.10;99.90
6174;DHT22;3120;48.796;9.796;2022-10-19T19:38:39;13.60;99.90
6174;DHT22;3120;48.796;9.796;2022-10-19T19:41:06;13.00;99.90
6174;DHT22;3120;48.796;9.796;2022-10-19T19:43:35;13.00;99.90
6174;DHT22;3120;48.796;9.796;2022-10-19T19:46:04;13.10;99.90
6174;DHT22;3120;48.796;9.796;2022-10-19T19:48:34;13.00;99.90
6174;DHT22;3120;48.796;9.796;2022-10-19T19:51:00;13.00;99.90
6174;DHT22;3120;48.796;9.796;2022-10-19T19:53:25;13.30;99.90
6174;DHT22;3120;48.796;9.796;2022-10-19T19:55:51;13.70;99.90
6174;DHT22;3120;48.796;9.796;2022-10-19T19:58:17;12.80;99.90
6174;DHT22;3120;48.796;9.796;2022-10-19T20:00:44;13.10;99.90
6174;DHT22;3120;48.796;9.796;2022-10-19T20:03:10;13.40;99.90
6174;DHT22;3120;48.796;9.796;2022-10-19T20:05:38;12.70;99.90
6174;DHT22;3120;48.796;9.796;2022-10-19T20:08:04;12.70;99.90
6174;DHT22;3120;48.796;9.796;2022-10-19T20:10:30;12.60;99.90
6174;DHT22;3120;48.796;9.796;2022-10-19T20:12:56;12.60;99.90
6174;DHT22;3120;48.796;9.796;2022-10-19T20:15:21;13.10;99.90
6174;DHT22;3120;48.796;9.796;2022-10-19T20:17:47;13.50;99.90
6174;DHT22;3120;48.796;9.796;2022-10-19T20:20:14;12.50;99.90
6174;DHT22;3120;48.796;9.796;2022-10-19T20:22:46;13.40;99.90
6174;DHT22;3120;48.796;9.796;2022-10-19T20:25:12;12.50;99.90
6174;DHT22;3120;48.796;9.796;2022-10-19T20:27:37;12.50;99.90
6174;DHT22;3120;48.796;9.796;2022-10-19T20:30:03;12.50;99.90
6174;DHT22;3120;48.796;9.796;2022-10-19T20:32:29;12.60;99.90
6174;DHT22;3120;48.796;9.796;2022-10-19T20:34:55;12.60;99.90
6174;DHT22;3120;48.796;9.796;2022-10-19T20:37:21;12.50;99.90
6174;DHT22;3120;48.796;9.796;2022-10-19T20:39:47;12.50;99.90
6174;DHT22;3120;48.796;9.796;2022-10-19T20:42:13;12.40;99.90
6174;DHT22;3120;48.796;9.796;2022-10-19T20:44:39;12.80;99.90
6174;DHT22;3120;48.796;9.796;2022-10-19T20:47:05;12.40;99.90
6174;DHT22;3120;48.796;9.796;2022-10-19T20:49:30;12.30;99.90
6174;DHT22;3120;48.796;9.796;2022-10-19T20:51:56;12.30;99.90
6174;DHT22;3120;48.796;9.796;2022-10-19T20:54:22;12.20;99.90
6174;DHT22;3120;48.796;9.796;2022-10-19T20:56:47;12.20;99.90
6174;DHT22;3120;48.796;9.796;2022-10-19T20:59:15;12.70;99.90
6174;DHT22;3120;48.796;9.796;2022-10-19T21:01:42;12.20;99.90
6174;DHT22;3120;48.796;9.796;2022-10-19T21:04:10;12.20;99.90
6174;DHT22;3120;48.796;9.796;2022-10-19T21:06:41;12.10;99.90
6174;DHT22;3120;48.796;9.796;2022-10-19T21:09:08;12.10;99.90
6174;DHT22;3120;48.796;9.796;2022-10-19T21:11:36;12.00;99.90
6174;DHT22;3120;48.796;9.796;2022-10-19T21:14:09;12.00;99.90
6174;DHT22;3120;48.796;9.796;2022-10-19T21:16:36;12.00;99.90
6174;DHT22;3120;48.796;9.796;2022-10-19T21:29:22;11.90;99.90
6174;DHT22;3120;48.796;9.796;2022-10-19T21:31:48;11.80;99.90
6174;DHT22;3120;48.796;9.796;2022-10-19T21:34:23;13.80;99.90
6174;DHT22;3120;48.796;9.796;2022-10-19T21:36:49;13.90;99.90
6174;DHT22;3120;48.796;9.796;2022-10-19T21:39:16;13.70;99.90
6174;DHT22;3120;48.796;9.796;2022-10-19T21:41:41;14.60;99.90
6174;DHT22;3120;48.796;9.796;2022-10-19T21:44:07;14.20;99.90
6174;DHT22;3120;48.796;9.796;2022-10-19T21:46:33;13.50;99.90